createdAt,value
2016-11-17T00:00:35.291Z,0
2016-11-17T00:01:50.674Z,0
2016-11-17T00:03:05.246Z,0
2016-11-17T00:04:19.804Z,0
2016-11-17T00:05:34.855Z,0
2016-11-17T00:06:49.823Z,0
2016-11-17T00:08:04.853Z,0
2016-11-17T00:09:19.571Z,0
2016-11-17T00:10:34.180Z,0
2016-11-17T00:11:49.613Z,0
2016-11-17T00:13:19.457Z,0
2016-11-17T00:14:34.142Z,0
2016-11-17T00:15:49.564Z,0
2016-11-17T00:17:05.039Z,0
2016-11-17T00:18:34.306Z,0
2016-11-17T00:19:50.005Z,0
2016-11-17T00:21:04.669Z,0
2016-11-17T00:22:19.098Z,0
2016-11-17T00:27:30.329Z,0
2016-11-17T00:28:45.004Z,0
2016-11-17T00:29:59.481Z,0
2016-11-17T00:31:14.325Z,0
2016-11-17T00:32:29.905Z,0
2016-11-17T00:33:44.715Z,0
2016-11-17T00:34:59.389Z,0
2016-11-17T00:36:13.974Z,0
2016-11-17T00:37:29.067Z,0
2016-11-17T00:38:46.563Z,0
2016-11-17T00:40:02.047Z,0
2016-11-17T00:42:15.198Z,0
2016-11-17T00:43:29.981Z,0
2016-11-17T00:44:45.158Z,0
2016-11-17T00:45:59.814Z,0
2016-11-17T00:47:14.696Z,0
2016-11-17T00:48:29.593Z,0
2016-11-17T00:49:44.521Z,0
2016-11-17T00:50:59.464Z,0
2016-11-17T00:52:14.083Z,0
2016-11-17T00:53:29.081Z,0
2016-11-17T00:54:43.763Z,0
2016-11-17T00:55:58.564Z,0
2016-11-17T00:57:13.339Z,0
2016-11-17T00:58:28.072Z,0
2016-11-17T00:59:42.820Z,0
2016-11-17T01:00:57.360Z,0
2016-11-17T01:02:12.223Z,0
2016-11-17T01:03:27.164Z,0
2016-11-17T01:04:42.395Z,0
2016-11-17T01:05:56.950Z,0
2016-11-17T01:07:11.744Z,0
2016-11-17T01:08:26.777Z,0
2016-11-17T01:09:42.320Z,0
2016-11-17T01:10:57.015Z,0
2016-11-17T01:12:11.613Z,0
2016-11-17T01:13:26.198Z,0
2016-11-17T01:14:41.037Z,0
2016-11-17T01:15:56.663Z,0
2016-11-17T01:17:11.171Z,0
2016-11-17T01:18:25.878Z,0
2016-11-17T01:19:40.556Z,0
2016-11-17T01:20:54.999Z,0
2016-11-17T01:22:10.250Z,0
2016-11-17T01:23:25.035Z,0
2016-11-17T01:24:39.479Z,0
2016-11-17T01:25:54.131Z,0
2016-11-17T01:27:08.951Z,0
2016-11-17T01:28:24.135Z,0
2016-11-17T01:29:38.803Z,0
2016-11-17T01:30:53.543Z,0
2016-11-17T01:32:08.351Z,0
2016-11-17T01:33:23.422Z,0
2016-11-17T01:34:38.696Z,0
2016-11-17T01:35:53.501Z,0
2016-11-17T01:37:08.724Z,0
2016-11-17T01:39:54.040Z,0
2016-11-17T01:41:23.363Z,0
2016-11-17T01:42:52.631Z,0
2016-11-17T01:44:07.260Z,0
2016-11-17T01:46:35.259Z,0
2016-11-17T01:47:51.178Z,0
2016-11-17T01:49:05.633Z,0
2016-11-17T01:50:20.120Z,0
2016-11-17T01:51:34.750Z,0
2016-11-17T01:52:49.939Z,0
2016-11-17T01:54:05.239Z,0
2016-11-17T01:55:19.723Z,0
2016-11-17T01:56:34.246Z,0
2016-11-17T01:57:48.856Z,0
2016-11-17T01:59:06.932Z,0
2016-11-17T02:00:21.920Z,0
2016-11-17T02:01:37.016Z,0
2016-11-17T02:02:51.638Z,0
2016-11-17T02:04:06.067Z,0
2016-11-17T02:05:20.959Z,0
2016-11-17T02:06:35.708Z,0
2016-11-17T02:07:50.827Z,0
2016-11-17T02:09:05.353Z,0
2016-11-17T02:10:34.609Z,0
2016-11-17T02:11:49.807Z,0
2016-11-17T02:13:04.444Z,0
2016-11-17T02:14:19.445Z,0
2016-11-17T02:15:34.277Z,0
2016-11-17T02:16:49.345Z,0
2016-11-17T02:18:05.022Z,0
2016-11-17T02:19:20.547Z,0
2016-11-17T02:20:35.182Z,0
2016-11-17T02:21:49.781Z,0
2016-11-17T02:23:04.156Z,0
2016-11-17T02:24:19.726Z,0
2016-11-17T02:25:34.267Z,0
2016-11-17T02:26:49.438Z,0
2016-11-17T02:28:04.068Z,0
2016-11-17T02:29:19.029Z,0
2016-11-17T02:30:34.268Z,0
2016-11-17T02:31:48.856Z,0
2016-11-17T02:33:03.512Z,0
2016-11-17T02:34:18.522Z,0
2016-11-17T02:35:33.282Z,0
2016-11-17T02:36:48.939Z,0
2016-11-17T02:38:04.382Z,0
2016-11-17T02:39:19.041Z,0
2016-11-17T02:40:34.189Z,0
2016-11-17T02:41:48.858Z,0
2016-11-17T02:43:04.531Z,0
2016-11-17T02:44:19.418Z,0
2016-11-17T02:45:34.341Z,0
2016-11-17T02:46:49.172Z,0
2016-11-17T02:48:03.972Z,0
2016-11-17T02:49:19.581Z,0
2016-11-17T02:50:34.478Z,0
2016-11-17T02:52:04.057Z,0
2016-11-17T02:53:18.712Z,0
2016-11-17T02:54:33.546Z,0
2016-11-17T02:55:48.614Z,0
2016-11-17T02:57:03.913Z,0
2016-11-17T02:58:18.614Z,0
2016-11-17T02:59:33.633Z,0
2016-11-17T03:00:49.612Z,0
2016-11-17T03:02:05.121Z,0
2016-11-17T03:03:19.629Z,0
2016-11-17T03:04:34.143Z,0
2016-11-17T03:05:48.812Z,0
2016-11-17T03:07:03.593Z,0
2016-11-17T03:08:18.802Z,0
2016-11-17T03:09:38.373Z,0
2016-11-17T03:10:54.790Z,0
2016-11-17T03:12:09.539Z,0
2016-11-17T03:13:24.682Z,0
2016-11-17T03:14:39.837Z,0
2016-11-17T03:15:54.405Z,0
2016-11-17T03:17:11.316Z,0
2016-11-17T03:18:26.160Z,0
2016-11-17T03:19:41.243Z,0
2016-11-17T03:20:56.197Z,0
2016-11-17T03:22:10.935Z,0
2016-11-17T03:23:25.393Z,0
2016-11-17T03:24:39.854Z,0
2016-11-17T03:25:55.125Z,0
2016-11-17T03:27:09.909Z,0
2016-11-17T03:28:24.348Z,0
2016-11-17T03:29:38.913Z,0
2016-11-17T03:30:53.267Z,0
2016-11-17T03:32:08.376Z,0
2016-11-17T03:33:23.196Z,0
2016-11-17T03:34:37.501Z,0
2016-11-17T03:35:52.137Z,0
2016-11-17T03:37:07.170Z,0
2016-11-17T03:38:22.405Z,0
2016-11-17T03:39:37.520Z,0
2016-11-17T03:40:52.165Z,0
2016-11-17T03:42:07.167Z,0
2016-11-17T03:43:21.472Z,0
2016-11-17T03:44:36.303Z,0
2016-11-17T03:45:51.167Z,0
2016-11-17T03:47:20.627Z,0
2016-11-17T03:48:35.518Z,0
2016-11-17T03:49:50.666Z,0
2016-11-17T03:51:05.184Z,0
2016-11-17T03:55:32.070Z,0
2016-11-17T03:56:46.661Z,0
2016-11-17T03:58:01.850Z,0
2016-11-17T03:59:16.713Z,0
2016-11-17T04:00:31.771Z,0
2016-11-17T04:01:46.522Z,0
2016-11-17T04:03:01.004Z,0
2016-11-17T04:04:15.575Z,0
2016-11-17T04:05:30.741Z,0
2016-11-17T04:06:45.381Z,0
2016-11-17T04:08:29.342Z,0
2016-11-17T04:09:44.833Z,0
2016-11-17T04:11:00.227Z,0
2016-11-17T04:12:14.591Z,0
2016-11-17T04:13:29.307Z,0
2016-11-17T04:14:44.427Z,0
2016-11-17T04:15:59.349Z,0
2016-11-17T04:17:13.960Z,0
2016-11-17T04:18:29.117Z,0
2016-11-17T04:19:58.641Z,0
2016-11-17T04:21:13.318Z,0
2016-11-17T04:22:27.925Z,0
2016-11-17T04:23:57.528Z,0
2016-11-17T04:25:12.547Z,0
2016-11-17T04:26:27.327Z,0
2016-11-17T04:27:41.873Z,0
2016-11-17T04:31:54.372Z,0
2016-11-17T04:33:09.549Z,0
2016-11-17T04:34:24.176Z,0
2016-11-17T04:35:38.845Z,0
2016-11-17T04:36:53.775Z,0
2016-11-17T04:40:46.437Z,0
2016-11-17T04:42:23.189Z,0
2016-11-17T04:43:47.686Z,0
2016-11-17T04:45:26.617Z,0
2016-11-17T04:46:44.124Z,0
2016-11-17T04:48:01.395Z,0
2016-11-17T04:49:16.006Z,0
2016-11-17T04:50:31.358Z,0
2016-11-17T04:51:46.398Z,0
2016-11-17T04:53:01.431Z,0
2016-11-17T04:54:16.248Z,0
2016-11-17T04:55:31.132Z,0
2016-11-17T04:56:45.682Z,0
2016-11-17T04:58:01.255Z,0
2016-11-17T04:59:15.953Z,0
2016-11-17T05:00:30.838Z,0
2016-11-17T05:01:45.638Z,0
2016-11-17T05:03:00.992Z,0
2016-11-17T05:04:16.076Z,0
2016-11-17T05:05:30.787Z,0
2016-11-17T05:06:45.671Z,0
2016-11-17T05:08:00.399Z,0
2016-11-17T05:09:15.407Z,0
2016-11-17T05:10:31.608Z,0
2016-11-17T05:11:46.745Z,0
2016-11-17T05:13:01.733Z,0
2016-11-17T05:14:16.380Z,0
2016-11-17T05:15:31.598Z,0
2016-11-17T05:16:46.639Z,0
2016-11-17T05:18:02.949Z,0
2016-11-17T05:19:17.770Z,0
2016-11-17T05:20:33.261Z,0
2016-11-17T05:21:47.651Z,0
2016-11-17T05:23:03.283Z,0
2016-11-17T05:24:18.309Z,0
2016-11-17T05:25:33.037Z,0
2016-11-17T05:26:47.749Z,0
2016-11-17T05:28:02.800Z,0
2016-11-17T05:29:17.556Z,0
2016-11-17T05:30:32.867Z,0
2016-11-17T05:31:48.534Z,0
2016-11-17T05:33:18.668Z,0
2016-11-17T05:34:34.530Z,0
2016-11-17T05:35:49.466Z,0
2016-11-17T05:37:04.699Z,0
2016-11-17T05:38:19.872Z,0
2016-11-17T05:39:34.635Z,0
2016-11-17T05:40:49.599Z,0
2016-11-17T05:42:03.896Z,0
2016-11-17T05:43:18.754Z,0
2016-11-17T05:44:33.623Z,0
2016-11-17T05:45:48.487Z,0
2016-11-17T05:47:03.806Z,0
2016-11-17T05:49:48.002Z,0
2016-11-17T05:51:03.234Z,0
2016-11-17T05:52:18.330Z,0
2016-11-17T05:53:32.971Z,0
2016-11-17T05:54:48.546Z,0
2016-11-17T05:56:03.896Z,0
2016-11-17T05:57:18.877Z,0
2016-11-17T05:58:33.907Z,0
2016-11-17T05:59:50.950Z,0
2016-11-17T06:01:06.057Z,0
2016-11-17T06:02:20.869Z,0
2016-11-17T06:03:50.368Z,0
2016-11-17T06:05:05.739Z,0
2016-11-17T06:06:20.630Z,0
2016-11-17T06:07:35.331Z,0
2016-11-17T06:08:49.947Z,0
2016-11-17T06:10:04.923Z,0
2016-11-17T06:11:19.705Z,0
2016-11-17T06:12:34.193Z,0
2016-11-17T06:13:49.003Z,0
2016-11-17T06:15:03.476Z,0
2016-11-17T06:16:18.377Z,0
2016-11-17T06:17:33.319Z,0
2016-11-17T06:18:48.270Z,0
2016-11-17T06:20:03.366Z,0
2016-11-17T06:21:17.844Z,0
2016-11-17T06:22:33.443Z,0
2016-11-17T06:23:48.114Z,0
2016-11-17T06:25:02.713Z,0
2016-11-17T06:26:17.113Z,0
2016-11-17T06:27:31.981Z,0
2016-11-17T06:28:46.907Z,0
2016-11-17T06:30:01.467Z,0
2016-11-17T06:31:15.904Z,0
2016-11-17T06:32:30.667Z,0
2016-11-17T06:33:45.888Z,0
2016-11-17T06:35:00.561Z,0
2016-11-17T06:36:15.515Z,0
2016-11-17T06:40:27.402Z,0
2016-11-17T06:41:42.283Z,0
2016-11-17T06:42:57.270Z,0
2016-11-17T06:44:12.856Z,0
2016-11-17T06:45:27.571Z,0
2016-11-17T06:46:42.222Z,0
2016-11-17T06:47:57.384Z,0
2016-11-17T06:49:11.914Z,0
2016-11-17T06:50:27.574Z,0
2016-11-17T06:51:42.215Z,0
2016-11-17T06:52:57.468Z,0
2016-11-17T06:54:12.809Z,0
2016-11-17T06:55:27.233Z,0
2016-11-17T06:56:56.965Z,0
2016-11-17T06:58:11.756Z,0
2016-11-17T06:59:26.675Z,5
2016-11-17T07:00:41.899Z,5
2016-11-17T07:01:57.422Z,5
2016-11-17T07:03:13.208Z,5
2016-11-17T07:04:28.111Z,5
2016-11-17T07:05:42.796Z,5
2016-11-17T07:06:57.411Z,10
2016-11-17T07:08:12.208Z,10
2016-11-17T07:09:26.821Z,10
2016-11-17T07:10:41.786Z,10
2016-11-17T07:11:56.541Z,10
2016-11-17T07:13:11.866Z,5
2016-11-17T07:14:26.583Z,10
2016-11-17T07:15:42.271Z,10
2016-11-17T07:16:57.287Z,15
2016-11-17T07:18:12.181Z,15
2016-11-17T07:19:28.919Z,15
2016-11-17T07:20:43.214Z,15
2016-11-17T07:23:28.629Z,20
2016-11-17T07:24:43.433Z,20
2016-11-17T07:25:57.678Z,15
2016-11-17T07:27:12.728Z,20
2016-11-17T07:28:27.112Z,20
2016-11-17T07:29:42.571Z,15
2016-11-17T07:30:57.543Z,15
2016-11-17T07:32:12.122Z,15
2016-11-17T07:33:27.228Z,15
2016-11-17T07:34:42.109Z,15
2016-11-17T07:35:56.746Z,15
2016-11-17T07:37:11.724Z,15
2016-11-17T07:38:26.932Z,10
2016-11-17T07:39:42.056Z,10
2016-11-17T07:40:57.539Z,10
2016-11-17T07:42:12.883Z,15
2016-11-17T07:43:27.981Z,15
2016-11-17T07:44:42.556Z,15
2016-11-17T07:45:57.848Z,10
2016-11-17T07:47:41.698Z,15
2016-11-17T07:48:56.968Z,15
2016-11-17T07:50:11.742Z,20
2016-11-17T07:51:26.614Z,25
2016-11-17T07:52:41.250Z,35
2016-11-17T07:53:55.667Z,30
2016-11-17T07:55:10.880Z,30
2016-11-17T07:56:25.811Z,30
2016-11-17T07:57:40.995Z,35
2016-11-17T07:58:56.427Z,35
2016-11-17T08:00:10.978Z,35
2016-11-17T08:01:26.282Z,35
2016-11-17T08:02:40.700Z,35
2016-11-17T08:03:55.787Z,35
2016-11-17T08:05:10.940Z,40
2016-11-17T08:06:25.517Z,45
2016-11-17T08:07:40.670Z,50
2016-11-17T08:08:55.988Z,60
2016-11-17T08:10:11.086Z,55
2016-11-17T08:11:26.141Z,55
2016-11-17T08:12:41.350Z,55
2016-11-17T08:13:56.115Z,55
2016-11-17T08:15:11.045Z,55
2016-11-17T08:16:26.309Z,55
2016-11-17T08:17:41.371Z,60
2016-11-17T08:18:56.272Z,60
2016-11-17T08:20:11.615Z,55
2016-11-17T08:21:26.395Z,50
2016-11-17T08:22:41.050Z,40
2016-11-17T08:23:56.168Z,40
2016-11-17T08:25:11.270Z,50
2016-11-17T08:26:26.535Z,50
2016-11-17T08:27:41.411Z,45
2016-11-17T08:28:56.617Z,50
2016-11-17T08:30:11.835Z,50
2016-11-17T08:31:26.328Z,50
2016-11-17T08:32:41.930Z,45
2016-11-17T08:33:56.754Z,30
2016-11-17T08:35:11.846Z,20
2016-11-17T08:36:27.428Z,30
2016-11-17T08:37:45.319Z,45
2016-11-17T08:39:15.313Z,60
2016-11-17T08:40:30.361Z,70
2016-11-17T08:41:45.415Z,65
2016-11-17T08:43:00.337Z,65
2016-11-17T08:44:15.308Z,70
2016-11-17T08:45:30.050Z,70
2016-11-17T08:46:44.591Z,70
2016-11-17T08:47:59.729Z,60
2016-11-17T08:49:14.933Z,55
2016-11-17T08:50:30.534Z,55
2016-11-17T08:51:45.696Z,50
2016-11-17T08:53:00.352Z,50
2016-11-17T08:54:15.204Z,45
2016-11-17T08:55:29.877Z,45
2016-11-17T08:56:44.730Z,40
2016-11-17T08:57:59.585Z,45
2016-11-17T08:59:14.431Z,50
2016-11-17T09:00:29.109Z,55
2016-11-17T09:01:43.692Z,60
2016-11-17T09:02:58.300Z,65
2016-11-17T09:04:13.102Z,75
2016-11-17T09:05:27.544Z,85
2016-11-17T09:06:42.686Z,80
2016-11-17T09:07:57.749Z,80
2016-11-17T09:09:12.577Z,80
2016-11-17T09:10:27.488Z,80
2016-11-17T09:11:41.946Z,75
2016-11-17T09:12:56.899Z,90
2016-11-17T09:14:11.523Z,95
2016-11-17T09:15:26.153Z,95
2016-11-17T09:16:41.719Z,100
2016-11-17T09:17:56.485Z,105
2016-11-17T09:19:11.188Z,110
2016-11-17T09:20:26.120Z,110
2016-11-17T09:21:41.051Z,115
2016-11-17T09:22:55.876Z,110
2016-11-17T09:29:50.998Z,130
2016-11-17T09:31:07.011Z,155
2016-11-17T09:32:21.609Z,170
2016-11-17T09:33:36.370Z,155
2016-11-17T09:34:51.133Z,150
2016-11-17T09:36:07.234Z,155
2016-11-17T09:38:20.738Z,145
2016-11-17T09:39:35.210Z,145
2016-11-17T09:40:50.157Z,145
2016-11-17T09:42:04.879Z,140
2016-11-17T09:43:20.058Z,130
2016-11-17T09:44:35.297Z,120
2016-11-17T09:45:50.379Z,110
2016-11-17T09:52:59.869Z,105
2016-11-17T09:54:15.318Z,105
2016-11-17T09:55:30.271Z,100
2016-11-17T09:58:15.402Z,100
2016-11-17T09:59:29.890Z,110
2016-11-17T10:00:45.021Z,110
2016-11-17T10:01:59.950Z,110
2016-11-17T10:03:17.337Z,105
2016-11-17T10:04:32.489Z,100
2016-11-17T10:05:47.955Z,90
2016-11-17T10:07:03.115Z,65
2016-11-17T10:08:33.015Z,55
2016-11-17T10:09:48.082Z,70
2016-11-17T10:11:17.634Z,55
2016-11-17T10:12:32.547Z,30
2016-11-17T10:13:47.295Z,40
2016-11-17T10:15:02.653Z,20
2016-11-17T10:16:17.060Z,20
2016-11-17T10:17:31.574Z,20
2016-11-17T10:18:46.706Z,30
2016-11-17T10:20:02.115Z,20
2016-11-17T10:21:17.923Z,15
2016-11-17T10:22:32.803Z,10
2016-11-17T10:23:47.170Z,10
2016-11-17T10:25:02.632Z,10
2016-11-17T10:26:17.722Z,10
2016-11-17T10:27:33.219Z,15
2016-11-17T10:28:48.369Z,10
2016-11-17T10:30:03.006Z,15
2016-11-17T10:31:18.478Z,15
2016-11-17T10:32:47.897Z,10
2016-11-17T10:34:02.949Z,20
2016-11-17T10:35:17.759Z,25
2016-11-17T10:36:47.498Z,20
2016-11-17T10:38:02.686Z,15
2016-11-17T10:39:17.615Z,20
2016-11-17T10:40:32.279Z,20
2016-11-17T10:41:47.415Z,30
2016-11-17T10:43:02.278Z,30
2016-11-17T10:44:17.627Z,40
2016-11-17T10:45:46.895Z,40
2016-11-17T10:47:01.427Z,35
2016-11-17T10:48:16.233Z,50
2016-11-17T10:49:30.809Z,80
2016-11-17T10:50:45.643Z,90
2016-11-17T10:52:00.281Z,65
2016-11-17T10:53:15.252Z,55
2016-11-17T10:54:30.137Z,35
2016-11-17T10:55:44.533Z,20
2016-11-17T10:57:00.074Z,30
2016-11-17T10:58:14.818Z,30
2016-11-17T10:59:29.248Z,35
2016-11-17T11:00:44.071Z,40
2016-11-17T11:02:13.895Z,45
2016-11-17T11:03:28.947Z,60
2016-11-17T11:04:44.162Z,70
2016-11-17T11:05:58.852Z,60
2016-11-17T11:07:13.345Z,60
2016-11-17T11:08:28.967Z,55
2016-11-17T11:09:44.199Z,45
2016-11-17T11:10:59.034Z,40
2016-11-17T11:12:13.567Z,65
2016-11-17T11:13:27.898Z,85
2016-11-17T11:14:43.640Z,100
2016-11-17T11:15:58.309Z,80
2016-11-17T11:17:14.358Z,95
2016-11-17T11:18:29.081Z,95
2016-11-17T11:19:43.573Z,110
2016-11-17T11:20:58.471Z,100
2016-11-17T11:22:30.529Z,85
2016-11-17T11:23:45.661Z,90
2016-11-17T11:25:00.206Z,80
2016-11-17T11:26:15.055Z,95
2016-11-17T11:27:29.960Z,105
2016-11-17T11:28:44.374Z,85
2016-11-17T11:30:00.723Z,95
2016-11-17T11:31:15.087Z,95
2016-11-17T11:32:30.315Z,90
2016-11-17T11:33:45.828Z,95
2016-11-17T11:35:00.219Z,85
2016-11-17T11:36:14.806Z,65
2016-11-17T11:37:29.349Z,65
2016-11-17T11:38:44.436Z,75
2016-11-17T11:39:59.218Z,95
2016-11-17T11:41:13.755Z,90
2016-11-17T11:42:28.259Z,80
2016-11-17T11:43:42.845Z,60
2016-11-17T11:44:58.719Z,55
2016-11-17T11:46:13.354Z,60
2016-11-17T11:47:27.762Z,75
2016-11-17T11:48:42.899Z,75
2016-11-17T11:49:57.551Z,70
2016-11-17T11:51:12.232Z,75
2016-11-17T11:52:27.070Z,85
2016-11-17T11:53:41.903Z,100
2016-11-17T11:54:56.912Z,115
2016-11-17T11:56:11.761Z,120
2016-11-17T11:57:26.469Z,120
2016-11-17T11:58:40.956Z,120
2016-11-17T11:59:56.523Z,120
2016-11-17T12:01:11.768Z,120
2016-11-17T12:02:26.625Z,120
2016-11-17T12:03:41.517Z,125
2016-11-17T12:04:55.844Z,115
2016-11-17T12:06:10.898Z,115
2016-11-17T12:07:25.406Z,120
2016-11-17T12:08:40.046Z,120
2016-11-17T12:09:54.890Z,115
2016-11-17T12:11:10.372Z,110
2016-11-17T12:12:25.642Z,120
2016-11-17T12:13:40.766Z,120
2016-11-17T12:14:55.775Z,120
2016-11-17T12:16:10.651Z,130
2016-11-17T12:17:25.684Z,145
2016-11-17T12:18:40.392Z,140
2016-11-17T12:19:55.184Z,140
2016-11-17T12:21:09.967Z,130
